アディスアベバ の空港の天気 - METARとTAF

ボレ国際空港(アディスアベバ) ( HAAB / ADD ) - エチオピア アディスアベバ
飛行場実況気象(Metar)
観測時間02/18 02:00 EAT (02/17 23:00 UTC)
風向・風速東南東 3m/s
視程10km以上
天気現象
少しの雲 雲底高度 760m
気温14℃
湿度72%
気圧1027hPa
METARHAAB 172300Z 11006KT 9999 FEW025 14/09 Q1027
過去の天気等 Google飛行場航空写真 Wunderground天気予報

過去48時間のMETAR

飛行場予報(TAF)
発表時間: 2/17 18:30 EAT (2/17 15:30 UTC)
予報対象時間: 17日21時 EAT ~ 19日3時 EAT
風向・風速東南東 5m/s
視程10km以上
全天の4割程度の雲 雲底高度 910m
少しの雲 雲底高度 2440m
18日12時 EAT ~ 18日15時 EAT に徐々に
風向・風速南南東 8m/s
全天の4割程度の雲 雲底高度 760m
18日15時 EAT ~ 18日18時 EAT に徐々に
風向・風速東 8m/s
全天の4割程度の雲 雲底高度 910m
少しの雲 雲底高度 2440m
TAF HAAB 171530Z 1718/1824 12010KT 9999 SCT030 FEW080
BECMG 1809/1812 16015KT SCT025
BECMG 1812/1815 10016KT SCT030 FEW080